createdAt,value
2022-09-07T00:00:14.621Z,25.94
2022-09-07T00:01:54.389Z,25.94
2022-09-07T00:03:34.149Z,25.93
2022-09-07T00:05:13.914Z,25.93
2022-09-07T00:06:53.694Z,25.93
2022-09-07T00:08:33.447Z,25.93
2022-09-07T00:10:13.224Z,25.93
2022-09-07T00:11:52.996Z,25.93
2022-09-07T00:13:32.767Z,25.93
2022-09-07T00:15:12.534Z,25.93
2022-09-07T00:16:52.289Z,25.92
2022-09-07T00:18:32.073Z,25.92
2022-09-07T00:21:51.606Z,25.92
2022-09-07T00:25:11.134Z,25.92
2022-09-07T00:26:50.893Z,25.92
2022-09-07T00:28:30.685Z,25.91
2022-09-07T00:30:10.428Z,25.91
2022-09-07T00:31:50.206Z,25.91
2022-09-07T00:33:29.967Z,25.91
2022-09-07T00:35:09.738Z,25.91
2022-09-07T00:36:49.526Z,25.91
2022-09-07T00:38:29.277Z,25.91
2022-09-07T00:40:09.056Z,25.91
2022-09-07T00:41:48.817Z,25.9
2022-09-07T00:45:08.351Z,25.9
2022-09-07T00:46:48.106Z,25.91
2022-09-07T00:48:27.881Z,25.9
2022-09-07T00:50:07.639Z,25.9
2022-09-07T00:51:47.416Z,25.9
2022-09-07T00:53:27.193Z,25.9
2022-09-07T00:55:06.944Z,25.89
2022-09-07T00:56:46.705Z,25.89
2022-09-07T00:58:26.478Z,25.89
2022-09-07T01:00:06.257Z,25.89
2022-09-07T01:01:46.024Z,25.89
2022-09-07T01:03:25.782Z,25.89
2022-09-07T01:05:05.555Z,25.88
2022-09-07T01:06:45.326Z,25.88
2022-09-07T01:08:25.077Z,25.89
2022-09-07T01:10:04.854Z,25.88
2022-09-07T01:11:44.617Z,25.88
2022-09-07T01:13:24.383Z,25.88
2022-09-07T01:15:04.149Z,25.88
2022-09-07T01:16:43.959Z,25.88
2022-09-07T01:18:23.693Z,25.88
2022-09-07T01:20:03.448Z,25.88
2022-09-07T01:21:43.213Z,25.87
2022-09-07T01:25:02.754Z,25.87
2022-09-07T01:26:42.529Z,25.87
2022-09-07T01:28:22.339Z,25.87
2022-09-07T01:31:41.833Z,25.86
2022-09-07T01:35:01.356Z,25.86
2022-09-07T01:36:41.146Z,25.86
2022-09-07T01:38:20.918Z,25.86
2022-09-07T01:40:00.682Z,25.85
2022-09-07T01:41:40.437Z,25.85
2022-09-07T01:44:59.977Z,25.85
2022-09-07T01:46:39.756Z,25.85
2022-09-07T01:48:19.514Z,25.85
2022-09-07T01:49:59.278Z,25.85
2022-09-07T01:51:39.043Z,25.84
2022-09-07T01:54:58.582Z,25.84
2022-09-07T01:56:38.352Z,25.83
2022-09-07T01:58:18.120Z,25.84
2022-09-07T01:59:57.882Z,25.84
2022-09-07T02:01:37.643Z,25.84
2022-09-07T02:04:57.180Z,25.84
2022-09-07T02:06:36.944Z,25.83
2022-09-07T02:08:16.717Z,25.83
2022-09-07T02:09:56.493Z,25.83
2022-09-07T02:11:36.249Z,25.83
2022-09-07T02:13:16.047Z,25.83
2022-09-07T02:14:55.788Z,25.82
2022-09-07T02:16:35.550Z,25.82
2022-09-07T02:18:15.315Z,25.82
2022-09-07T02:19:55.082Z,25.82
2022-09-07T02:21:34.855Z,25.81
2022-09-07T02:24:54.393Z,25.82
2022-09-07T02:26:34.168Z,25.81
2022-09-07T02:28:13.920Z,25.81
2022-09-07T02:29:53.692Z,25.81
2022-09-07T02:34:52.986Z,25.81
2022-09-07T02:36:32.753Z,25.81
2022-09-07T02:38:12.537Z,25.81
2022-09-07T02:39:52.296Z,25.81
2022-09-07T02:41:32.061Z,25.8
2022-09-07T02:44:51.610Z,25.8
2022-09-07T02:46:31.373Z,25.79
2022-09-07T02:48:11.133Z,25.8
2022-09-07T02:49:50.903Z,25.8
2022-09-07T02:51:30.671Z,25.79
2022-09-07T02:54:50.202Z,25.79
2022-09-07T02:56:29.968Z,25.79
2022-09-07T02:58:09.740Z,25.79
2022-09-07T02:59:49.518Z,25.79
2022-09-07T03:01:29.266Z,25.78
2022-09-07T03:03:09.056Z,25.79
2022-09-07T03:04:48.807Z,25.78
2022-09-07T03:06:28.584Z,25.78
2022-09-07T03:08:08.352Z,25.78
2022-09-07T03:09:48.116Z,25.78
2022-09-07T03:11:27.880Z,25.76
2022-09-07T03:14:47.413Z,25.78
2022-09-07T03:16:27.190Z,25.78
2022-09-07T03:19:46.709Z,25.77
2022-09-07T03:21:26.493Z,25.77
2022-09-07T03:24:46.022Z,25.76
2022-09-07T03:26:25.782Z,25.76
2022-09-07T03:28:05.556Z,25.77
2022-09-07T03:29:45.328Z,25.76
2022-09-07T03:31:25.084Z,25.77
2022-09-07T03:34:44.622Z,25.76
2022-09-07T03:36:24.411Z,25.74
2022-09-07T03:38:04.161Z,25.76
2022-09-07T03:41:23.698Z,25.76
2022-09-07T03:44:43.224Z,25.76
2022-09-07T03:46:22.993Z,25.75
2022-09-07T03:48:02.765Z,25.75
2022-09-07T03:49:42.531Z,25.75
2022-09-07T03:51:22.303Z,25.75
2022-09-07T03:54:41.821Z,25.75
2022-09-07T03:56:21.593Z,25.75
2022-09-07T03:58:01.372Z,25.75
2022-09-07T03:59:41.122Z,25.75
2022-09-07T04:01:20.881Z,25.67
2022-09-07T04:03:00.655Z,25.75
2022-09-07T04:04:40.406Z,25.75
2022-09-07T04:06:20.177Z,25.75
2022-09-07T04:07:59.932Z,25.72
2022-09-07T04:09:39.711Z,25.73
2022-09-07T04:11:19.476Z,25.72
2022-09-07T04:12:59.228Z,25.73
2022-09-07T04:14:39.000Z,25.72
2022-09-07T04:16:18.766Z,25.73
2022-09-07T04:17:58.535Z,25.72
2022-09-07T04:19:38.295Z,25.71
2022-09-07T04:21:18.066Z,25.72
2022-09-07T04:22:57.834Z,25.72
2022-09-07T04:24:37.610Z,25.71
2022-09-07T04:26:17.359Z,25.73
2022-09-07T04:27:57.119Z,25.73
2022-09-07T04:29:36.873Z,25.73
2022-09-07T04:31:16.656Z,25.74
2022-09-07T04:34:36.182Z,25.75
2022-09-07T04:36:15.942Z,25.75
2022-09-07T04:37:55.699Z,25.75
2022-09-07T04:39:35.469Z,25.76
2022-09-07T04:41:15.227Z,25.76
2022-09-07T04:44:34.765Z,25.78
2022-09-07T04:46:14.521Z,25.78
2022-09-07T04:47:54.297Z,25.8
2022-09-07T04:49:34.079Z,25.81
2022-09-07T04:51:13.834Z,25.82
2022-09-07T04:54:33.370Z,25.84
2022-09-07T04:56:13.133Z,25.85
2022-09-07T04:57:52.899Z,25.86
2022-09-07T04:59:32.668Z,25.88
2022-09-07T05:01:12.441Z,25.89
2022-09-07T05:04:31.979Z,25.9
2022-09-07T05:07:51.503Z,25.98
2022-09-07T05:09:31.277Z,25.96
2022-09-07T05:11:11.056Z,25.98
2022-09-07T05:12:50.814Z,26
2022-09-07T05:14:30.587Z,26.01
2022-09-07T05:16:10.364Z,26.03
2022-09-07T05:17:50.144Z,26.05
2022-09-07T05:19:29.896Z,26.08
2022-09-07T05:21:09.687Z,26.09
2022-09-07T05:22:49.438Z,26.11
2022-09-07T05:24:29.203Z,26.14
2022-09-07T05:26:08.987Z,26.15
2022-09-07T05:27:48.763Z,26.18
2022-09-07T05:29:28.531Z,26.19
2022-09-07T05:31:08.281Z,26.22
2022-09-07T05:32:48.074Z,26.24
2022-09-07T05:34:27.840Z,26.26
2022-09-07T05:36:07.603Z,26.27
2022-09-07T05:37:47.375Z,26.29
2022-09-07T05:39:27.137Z,26.29
2022-09-07T05:41:06.923Z,26.33
2022-09-07T05:42:46.685Z,26.34
2022-09-07T05:44:26.452Z,26.36
2022-09-07T05:46:06.235Z,26.38
2022-09-07T05:47:45.998Z,26.39
2022-09-07T05:49:25.810Z,26.43
2022-09-07T05:54:25.079Z,26.59
2022-09-07T05:56:04.858Z,26.69
2022-09-07T05:57:44.628Z,26.76
2022-09-07T05:59:24.400Z,26.87
2022-09-07T06:01:04.171Z,26.97
2022-09-07T06:04:23.696Z,27.17
2022-09-07T06:06:03.483Z,27.15
2022-09-07T06:07:43.246Z,27.83
2022-09-07T06:09:23.005Z,28.36
2022-09-07T06:11:02.776Z,28.79
2022-09-07T06:12:42.537Z,29.19
2022-09-07T06:14:22.308Z,29.13
2022-09-07T06:16:02.118Z,29.13
2022-09-07T06:17:41.847Z,29.12
2022-09-07T06:19:21.622Z,29.08
2022-09-07T06:21:01.408Z,29.13
2022-09-07T06:24:20.940Z,29.1
2022-09-07T06:26:00.699Z,29.1
2022-09-07T06:27:40.476Z,29.11
2022-09-07T06:29:20.248Z,29.1
2022-09-07T06:31:00.073Z,29.1
2022-09-07T06:34:19.543Z,29.08
2022-09-07T06:35:59.320Z,29.08
2022-09-07T06:37:39.098Z,29.07
2022-09-07T06:39:18.876Z,29.03
2022-09-07T06:42:38.396Z,29.07
2022-09-07T06:44:18.163Z,29.01
2022-09-07T06:45:57.940Z,29.07
2022-09-07T06:47:37.711Z,29.06
2022-09-07T06:49:17.477Z,29.03
2022-09-07T06:50:57.246Z,29.01
2022-09-07T06:52:37.034Z,29.04
2022-09-07T06:54:16.799Z,28.99
2022-09-07T06:55:56.578Z,29.05
2022-09-07T06:57:36.342Z,28.96
2022-09-07T06:59:16.105Z,29
2022-09-07T07:00:55.904Z,29.01
2022-09-07T07:02:35.650Z,29.05
2022-09-07T07:04:15.420Z,29.06
2022-09-07T07:05:55.190Z,29.04
2022-09-07T07:07:34.957Z,28.99
2022-09-07T07:09:14.731Z,29.05
2022-09-07T07:10:54.487Z,29.01
2022-09-07T07:14:14.048Z,29.05
2022-09-07T07:15:53.829Z,28.99
2022-09-07T07:17:33.572Z,29.03
2022-09-07T07:19:13.349Z,29.04
2022-09-07T07:20:53.117Z,29
2022-09-07T07:22:32.890Z,29.03
2022-09-07T07:24:12.663Z,29.03
2022-09-07T07:25:52.435Z,29.03
2022-09-07T07:27:32.198Z,29.01
2022-09-07T07:29:11.983Z,28.98
2022-09-07T07:30:51.734Z,28.97
2022-09-07T07:32:31.511Z,28.96
2022-09-07T07:34:11.284Z,29.01
2022-09-07T07:35:51.057Z,29.01
2022-09-07T07:37:30.825Z,29.01
2022-09-07T07:39:10.610Z,29
2022-09-07T07:40:50.374Z,28.96
2022-09-07T07:42:30.131Z,29.01
2022-09-07T07:44:09.923Z,28.97
2022-09-07T07:45:49.685Z,28.97
2022-09-07T07:47:29.451Z,29.01
2022-09-07T07:49:09.221Z,28.96
2022-09-07T07:50:48.986Z,28.98
2022-09-07T07:52:28.752Z,28.96
2022-09-07T07:54:08.527Z,29
2022-09-07T07:55:48.323Z,29
2022-09-07T07:57:28.070Z,28.94
2022-09-07T07:59:07.847Z,28.95
2022-09-07T08:00:47.617Z,28.95
2022-09-07T08:02:27.396Z,28.95
2022-09-07T08:04:07.155Z,28.94
2022-09-07T08:05:46.922Z,28.99
2022-09-07T08:07:26.709Z,29
2022-09-07T08:09:06.479Z,28.99
2022-09-07T08:10:46.231Z,28.98
2022-09-07T08:12:26.015Z,28.93
2022-09-07T08:14:05.779Z,28.93
2022-09-07T08:15:45.561Z,28.83
2022-09-07T08:17:25.371Z,28.96
2022-09-07T08:19:05.093Z,28.97
2022-09-07T08:20:44.867Z,28.98
2022-09-07T08:22:24.648Z,28.97
2022-09-07T08:24:04.400Z,28.93
2022-09-07T08:25:44.174Z,28.95
2022-09-07T08:27:23.945Z,28.93
2022-09-07T08:29:03.714Z,28.97
2022-09-07T08:30:43.500Z,28.94
2022-09-07T08:32:23.235Z,28.98
2022-09-07T08:34:03.020Z,28.97
2022-09-07T08:35:42.782Z,28.93
2022-09-07T08:37:22.564Z,28.96
2022-09-07T08:39:02.340Z,28.94
2022-09-07T08:40:42.117Z,28.95
2022-09-07T08:42:21.872Z,28.97
2022-09-07T08:44:01.638Z,28.96
2022-09-07T08:45:41.423Z,28.92
2022-09-07T08:47:21.174Z,28.93
2022-09-07T08:49:00.961Z,28.95
2022-09-07T08:50:40.719Z,28.93
2022-09-07T08:52:20.480Z,28.96
2022-09-07T08:54:00.265Z,28.94
2022-09-07T08:55:40.042Z,28.94
2022-09-07T08:57:19.816Z,28.91
2022-09-07T08:58:59.604Z,28.92
2022-09-07T09:00:39.366Z,28.92
2022-09-07T09:02:19.117Z,28.94
2022-09-07T09:03:58.996Z,28.9
2022-09-07T09:05:38.757Z,28.91
2022-09-07T09:07:18.473Z,28.9
2022-09-07T09:08:58.229Z,28.92
2022-09-07T09:10:37.964Z,28.88
2022-09-07T09:12:17.740Z,27.87
2022-09-07T09:13:57.539Z,27.56
2022-09-07T09:15:37.340Z,27.43
2022-09-07T09:17:17.044Z,27.33
2022-09-07T09:18:56.877Z,27.25
2022-09-07T09:20:36.615Z,27.18
2022-09-07T09:22:16.413Z,27.12
2022-09-07T09:23:56.151Z,27.06
2022-09-07T09:25:35.888Z,27.03
2022-09-07T09:27:15.670Z,27.08
2022-09-07T09:28:55.437Z,27.09
2022-09-07T09:30:35.201Z,27.09
2022-09-07T09:33:54.739Z,27.11
2022-09-07T09:35:34.503Z,27.1
2022-09-07T09:37:14.320Z,27.1
2022-09-07T09:38:54.049Z,27.09
2022-09-07T09:40:33.825Z,27.1
2022-09-07T09:42:13.582Z,27.09
2022-09-07T09:43:53.388Z,27.09
2022-09-07T09:45:33.125Z,27.09
2022-09-07T09:47:12.899Z,27.09
2022-09-07T09:48:52.670Z,27.09
2022-09-07T09:50:32.437Z,27.09
2022-09-07T09:52:12.203Z,27.08
2022-09-07T09:53:51.982Z,27.09
2022-09-07T09:55:31.750Z,27.09
2022-09-07T09:57:11.517Z,27.09
2022-09-07T09:58:51.293Z,27.07
2022-09-07T10:00:31.055Z,27.08
2022-09-07T10:02:10.833Z,27.07
2022-09-07T10:03:50.593Z,27.08
2022-09-07T10:05:30.368Z,27.08
2022-09-07T10:07:10.218Z,27.08
2022-09-07T10:08:49.951Z,27.07
2022-09-07T10:10:29.669Z,27.07
2022-09-07T10:13:49.217Z,27.07
2022-09-07T10:15:29.046Z,27.08
2022-09-07T10:17:08.771Z,27.07
2022-09-07T10:18:48.550Z,27.06
2022-09-07T10:20:28.368Z,27.07
2022-09-07T10:22:08.078Z,27.07
2022-09-07T10:23:47.846Z,27.06
2022-09-07T10:25:27.619Z,26.98
2022-09-07T10:27:07.375Z,27.07
2022-09-07T10:28:47.145Z,27.07
2022-09-07T10:30:26.989Z,27.07
2022-09-07T10:32:06.686Z,27.08
2022-09-07T10:33:46.458Z,27.08
2022-09-07T10:35:26.274Z,27.07
2022-09-07T10:37:06.072Z,27.07
2022-09-07T10:38:45.780Z,27.06
2022-09-07T10:42:05.342Z,27.07
2022-09-07T10:43:45.158Z,27.05
2022-09-07T10:45:24.945Z,27.06
2022-09-07T10:47:04.626Z,27.06
2022-09-07T10:48:44.402Z,27.06
2022-09-07T10:50:24.178Z,27.06
2022-09-07T10:52:03.967Z,27.05
2022-09-07T10:53:43.710Z,27.07
2022-09-07T10:55:23.480Z,27.06
2022-09-07T10:57:03.272Z,27.05
2022-09-07T10:58:43.019Z,27.06
2022-09-07T11:00:22.796Z,27.05
2022-09-07T11:02:02.562Z,27.07
2022-09-07T11:03:42.333Z,27.07
2022-09-07T11:05:22.098Z,27.07
2022-09-07T11:07:01.880Z,27.06
2022-09-07T11:08:41.638Z,27.06
2022-09-07T11:10:21.418Z,27.06
2022-09-07T11:12:01.182Z,27.06
2022-09-07T11:13:40.961Z,27.06
2022-09-07T11:15:20.721Z,27.06
2022-09-07T11:17:00.506Z,27.04
2022-09-07T11:18:40.272Z,27.05
2022-09-07T11:20:20.040Z,27.05
2022-09-07T11:21:59.813Z,27.05
2022-09-07T11:23:39.577Z,27.07
2022-09-07T11:25:19.373Z,27.06
2022-09-07T11:26:59.122Z,27.05
2022-09-07T11:28:38.886Z,27.07
2022-09-07T11:30:18.670Z,27.06
2022-09-07T11:31:58.449Z,27.07
2022-09-07T11:33:38.204Z,27.06
2022-09-07T11:35:17.978Z,27.06
2022-09-07T11:36:57.747Z,27.06
2022-09-07T11:38:37.549Z,27.07
2022-09-07T11:40:17.297Z,27.05
2022-09-07T11:41:57.088Z,27.06
2022-09-07T11:43:36.864Z,26.97
2022-09-07T11:45:16.594Z,27.05
2022-09-07T11:46:56.399Z,27.05
2022-09-07T11:48:36.140Z,27.05
2022-09-07T11:50:15.914Z,27.04
2022-09-07T11:51:55.679Z,27.04
2022-09-07T11:53:35.482Z,27.03
2022-09-07T11:55:15.218Z,27.04
2022-09-07T11:56:55.042Z,27.03
2022-09-07T11:58:34.768Z,27.03
2022-09-07T12:00:14.565Z,27.03
2022-09-07T12:01:54.310Z,27.02
2022-09-07T12:03:34.079Z,27.02
2022-09-07T12:05:13.846Z,27.03
2022-09-07T12:06:53.606Z,27.02
2022-09-07T12:08:33.392Z,27.02
2022-09-07T12:10:13.146Z,27.02
2022-09-07T12:11:52.953Z,27.02
2022-09-07T12:13:32.695Z,27.03
2022-09-07T12:15:12.507Z,27.04
2022-09-07T12:16:52.254Z,27.04
2022-09-07T12:18:32.033Z,27.04
2022-09-07T12:20:11.789Z,27.02
2022-09-07T12:21:51.565Z,27.01
2022-09-07T12:23:31.311Z,27.02
2022-09-07T12:25:11.110Z,27.02
2022-09-07T12:26:50.884Z,27.01
2022-09-07T12:28:30.640Z,26.99
2022-09-07T12:30:10.392Z,27
2022-09-07T12:31:50.171Z,26.99
2022-09-07T12:33:29.953Z,26.98
2022-09-07T12:35:09.719Z,26.97
2022-09-07T12:36:49.526Z,26.97
2022-09-07T12:38:29.248Z,26.97
2022-09-07T12:40:09.025Z,26.98
2022-09-07T12:41:48.802Z,26.97
2022-09-07T12:43:28.572Z,26.97
2022-09-07T12:45:08.347Z,26.97
2022-09-07T12:46:48.100Z,26.96
2022-09-07T12:48:27.895Z,26.95
2022-09-07T12:50:07.637Z,26.95
2022-09-07T12:51:47.432Z,26.95
2022-09-07T12:53:27.189Z,26.95
2022-09-07T12:55:06.962Z,26.95
2022-09-07T12:56:46.733Z,26.95
2022-09-07T12:58:26.497Z,26.95
2022-09-07T13:00:06.284Z,26.95
2022-09-07T13:01:46.039Z,26.87
2022-09-07T13:03:25.808Z,26.96
2022-09-07T13:05:05.598Z,26.95
2022-09-07T13:06:45.354Z,26.96
2022-09-07T13:08:25.112Z,26.95
2022-09-07T13:10:04.920Z,26.96
2022-09-07T13:11:44.660Z,26.95
2022-09-07T13:13:24.454Z,26.96
2022-09-07T13:15:04.209Z,26.95
2022-09-07T13:16:43.977Z,26.96
2022-09-07T13:18:23.748Z,26.96
2022-09-07T13:20:03.516Z,26.96
2022-09-07T13:21:43.317Z,26.96
2022-09-07T13:23:23.072Z,26.95
2022-09-07T13:25:02.844Z,26.96
2022-09-07T13:26:42.627Z,26.95
2022-09-07T13:28:22.371Z,26.95
2022-09-07T13:30:02.159Z,26.94
2022-09-07T13:31:41.917Z,26.96
2022-09-07T13:33:21.680Z,26.96
2022-09-07T13:35:01.443Z,26.95
2022-09-07T13:36:41.218Z,26.95
2022-09-07T13:38:20.990Z,26.96
2022-09-07T13:40:00.765Z,26.96
2022-09-07T13:41:40.529Z,26.95
2022-09-07T13:43:20.312Z,26.96
2022-09-07T13:45:00.077Z,26.95
2022-09-07T13:46:39.835Z,26.96
2022-09-07T13:48:19.662Z,26.95
2022-09-07T13:49:59.375Z,26.95
2022-09-07T13:51:39.151Z,26.96
2022-09-07T13:53:18.928Z,26.96
2022-09-07T13:54:58.698Z,26.97
2022-09-07T13:56:38.473Z,26.98
2022-09-07T13:58:18.226Z,26.97
2022-09-07T13:59:58.014Z,26.96
2022-09-07T14:01:37.786Z,26.95
2022-09-07T14:03:17.552Z,26.95
2022-09-07T14:04:57.317Z,26.95
2022-09-07T14:06:37.103Z,26.95
2022-09-07T14:08:16.861Z,26.94
2022-09-07T14:09:56.709Z,26.95
2022-09-07T14:11:36.406Z,26.95
2022-09-07T14:13:16.164Z,26.95
2022-09-07T14:14:55.932Z,26.95
2022-09-07T14:16:35.704Z,26.93
2022-09-07T14:18:15.477Z,26.93
2022-09-07T14:19:55.261Z,26.82
2022-09-07T14:21:35.016Z,26.93
2022-09-07T14:24:54.565Z,26.94
2022-09-07T14:26:34.338Z,26.94
2022-09-07T14:28:14.108Z,26.95
2022-09-07T14:29:53.890Z,26.95
2022-09-07T14:33:13.448Z,26.93
2022-09-07T14:34:53.176Z,26.93
2022-09-07T14:36:32.965Z,26.93
2022-09-07T14:38:12.802Z,26.93
2022-09-07T14:39:52.506Z,26.93
2022-09-07T14:41:32.280Z,26.92
2022-09-07T14:43:12.049Z,26.92
2022-09-07T14:44:51.804Z,26.91
2022-09-07T14:46:31.583Z,26.91
2022-09-07T14:48:11.361Z,26.93
2022-09-07T14:49:51.143Z,26.93
2022-09-07T14:51:30.968Z,26.93
2022-09-07T14:53:10.655Z,26.93
2022-09-07T14:54:50.426Z,26.92
2022-09-07T14:56:30.212Z,26.92
2022-09-07T14:58:09.982Z,26.93
2022-09-07T14:59:49.740Z,26.94
2022-09-07T15:01:29.508Z,26.92
2022-09-07T15:03:09.334Z,26.93
2022-09-07T15:04:49.052Z,26.93
2022-09-07T15:06:28.815Z,26.93
2022-09-07T15:08:08.596Z,26.93
2022-09-07T15:09:48.441Z,26.92
2022-09-07T15:11:28.126Z,26.91
2022-09-07T15:13:07.934Z,26.93
2022-09-07T15:14:47.685Z,26.93
2022-09-07T15:16:27.474Z,26.95
2022-09-07T15:18:07.210Z,26.94
2022-09-07T15:19:46.992Z,26.94
2022-09-07T15:21:26.769Z,26.94
2022-09-07T15:23:06.533Z,26.94
2022-09-07T15:24:46.305Z,26.94
2022-09-07T15:26:26.063Z,26.93
2022-09-07T15:28:05.835Z,26.93
2022-09-07T15:29:45.635Z,26.93
2022-09-07T15:31:25.372Z,26.94
2022-09-07T15:33:05.171Z,26.93
2022-09-07T15:34:44.927Z,26.93
2022-09-07T15:36:24.706Z,26.92
2022-09-07T15:38:04.491Z,26.83
2022-09-07T15:39:44.247Z,26.93
2022-09-07T15:41:24.025Z,26.93
2022-09-07T15:43:03.790Z,26.92
2022-09-07T15:44:43.546Z,26.92
2022-09-07T15:46:23.317Z,26.92
2022-09-07T15:48:03.112Z,26.92
2022-09-07T15:49:42.846Z,26.91
2022-09-07T15:51:22.628Z,26.91
2022-09-07T15:53:02.407Z,26.9
2022-09-07T15:54:42.172Z,26.91
2022-09-07T15:56:21.961Z,26.9
2022-09-07T15:58:01.707Z,26.91
2022-09-07T15:59:41.484Z,26.9
2022-09-07T16:01:21.250Z,26.89
2022-09-07T16:03:01.035Z,26.88
2022-09-07T16:04:40.826Z,26.89
2022-09-07T16:06:20.571Z,26.88
2022-09-07T16:08:00.322Z,26.89
2022-09-07T16:09:40.191Z,26.88
2022-09-07T16:11:19.887Z,26.88
2022-09-07T16:12:59.657Z,26.87
2022-09-07T16:14:39.471Z,26.87
2022-09-07T16:16:19.267Z,26.88
2022-09-07T16:17:59.022Z,26.87
2022-09-07T16:19:38.733Z,26.87
2022-09-07T16:21:18.515Z,26.86
2022-09-07T16:22:58.267Z,26.86
2022-09-07T16:24:38.038Z,26.85
2022-09-07T16:26:17.864Z,26.86
2022-09-07T16:27:57.606Z,26.86
2022-09-07T16:29:37.370Z,26.86
2022-09-07T16:31:17.124Z,26.86
2022-09-07T16:32:56.911Z,26.86
2022-09-07T16:34:36.705Z,26.86
2022-09-07T16:36:16.513Z,26.86
2022-09-07T16:37:56.204Z,26.87
2022-09-07T16:39:35.968Z,26.86
2022-09-07T16:41:15.743Z,26.87
2022-09-07T16:42:55.517Z,26.88
2022-09-07T16:44:35.298Z,26.89
2022-09-07T16:46:15.110Z,26.88
2022-09-07T16:47:54.829Z,26.89
2022-09-07T16:49:34.627Z,26.91
2022-09-07T16:51:14.393Z,26.92
2022-09-07T16:52:54.168Z,26.92
2022-09-07T16:54:33.900Z,26.92
2022-09-07T16:56:13.698Z,26.81
2022-09-07T16:57:53.459Z,26.93
2022-09-07T16:59:33.236Z,26.92
2022-09-07T17:04:32.554Z,26.86
2022-09-07T17:06:12.375Z,26.82
2022-09-07T17:07:52.073Z,26.78
2022-09-07T17:09:31.854Z,26.74
2022-09-07T17:11:11.637Z,26.73
2022-09-07T17:12:51.427Z,26.73
2022-09-07T17:14:31.151Z,26.72
2022-09-07T17:16:10.925Z,26.71
2022-09-07T17:17:50.698Z,26.66
2022-09-07T17:19:30.484Z,26.61
2022-09-07T17:21:10.233Z,26.57
2022-09-07T17:22:50.063Z,26.54
2022-09-07T17:24:29.825Z,26.5
2022-09-07T17:26:09.523Z,26.47
2022-09-07T17:27:49.301Z,26.45
2022-09-07T17:29:29.091Z,26.43
2022-09-07T17:32:48.622Z,26.39
2022-09-07T17:34:28.388Z,26.38
2022-09-07T17:36:08.137Z,26.35
2022-09-07T17:37:47.915Z,26.35
2022-09-07T17:39:27.705Z,26.33
2022-09-07T17:41:07.432Z,26.32
2022-09-07T17:42:47.208Z,26.31
2022-09-07T17:44:26.973Z,26.29
2022-09-07T17:46:06.738Z,26.28
2022-09-07T17:47:46.515Z,26.28
2022-09-07T17:49:26.287Z,26.26
2022-09-07T17:51:06.051Z,26.25
2022-09-07T17:52:45.816Z,26.23
2022-09-07T17:54:25.573Z,26.23
2022-09-07T17:56:05.335Z,26.21
2022-09-07T17:57:45.105Z,26.22
2022-09-07T17:59:24.876Z,26.21
2022-09-07T18:01:04.660Z,26.21
2022-09-07T18:02:44.418Z,26.21
2022-09-07T18:04:24.197Z,26.2
2022-09-07T18:06:03.952Z,26.2
2022-09-07T18:07:43.744Z,26.19
2022-09-07T18:09:23.502Z,26.19
2022-09-07T18:11:03.267Z,26.19
2022-09-07T18:12:43.043Z,26.18
2022-09-07T18:14:22.783Z,26.18
2022-09-07T18:16:02.611Z,26.18
2022-09-07T18:17:42.337Z,26.18
2022-09-07T18:19:22.131Z,26.17
2022-09-07T18:21:01.864Z,26.17
2022-09-07T18:22:41.621Z,26.17
2022-09-07T18:24:21.397Z,26.16
2022-09-07T18:26:01.167Z,26.16
2022-09-07T18:27:40.960Z,26.16
2022-09-07T18:29:20.722Z,26.15
2022-09-07T18:31:00.514Z,26.15
2022-09-07T18:32:40.264Z,26.15
2022-09-07T18:34:20.027Z,26.15
2022-09-07T18:35:59.783Z,26.14
2022-09-07T18:37:39.567Z,26.15
2022-09-07T18:39:19.317Z,26.14
2022-09-07T18:40:59.058Z,26.14
2022-09-07T18:42:38.836Z,26.14
2022-09-07T18:44:18.610Z,26.14
2022-09-07T18:45:58.368Z,26.13
2022-09-07T18:47:38.179Z,26.13
2022-09-07T18:49:17.959Z,26.13
2022-09-07T18:50:57.697Z,26.13
2022-09-07T18:52:37.441Z,26.13
2022-09-07T18:54:17.216Z,26.13
2022-09-07T18:55:57.094Z,26.12
2022-09-07T18:57:36.756Z,26.12
2022-09-07T18:59:16.535Z,26.12
2022-09-07T19:00:56.271Z,26.11
2022-09-07T19:02:36.073Z,26.12
2022-09-07T19:04:15.810Z,26.12
2022-09-07T19:05:55.594Z,26.12
2022-09-07T19:07:35.345Z,26.11
2022-09-07T19:09:15.124Z,26.12
2022-09-07T19:10:54.899Z,26.11
2022-09-07T19:12:34.652Z,26.12
2022-09-07T19:14:14.427Z,26.11
2022-09-07T19:15:54.195Z,26.11
2022-09-07T19:17:33.954Z,26.11
2022-09-07T19:19:13.735Z,26.1
2022-09-07T19:20:53.534Z,26.1
2022-09-07T19:22:33.247Z,26.1
2022-09-07T19:24:13.034Z,26.1
2022-09-07T19:25:52.791Z,26.09
2022-09-07T19:27:32.568Z,26.1
2022-09-07T19:29:12.333Z,26.1
2022-09-07T19:30:52.105Z,26.1
2022-09-07T19:32:31.966Z,26.09
2022-09-07T19:34:11.639Z,26.1
2022-09-07T19:35:51.405Z,26.09
2022-09-07T19:37:31.184Z,26.1
2022-09-07T19:39:10.932Z,26.09
2022-09-07T19:40:50.755Z,26.09
2022-09-07T19:42:30.549Z,26.09
2022-09-07T19:44:10.224Z,26.09
2022-09-07T19:45:49.997Z,26.09
2022-09-07T19:47:29.853Z,26.08
2022-09-07T19:49:09.539Z,26.08
2022-09-07T19:50:49.360Z,26.06
2022-09-07T19:52:29.117Z,26.08
2022-09-07T19:54:08.911Z,26.08
2022-09-07T19:55:48.611Z,26.08
2022-09-07T19:57:28.383Z,26.08
2022-09-07T19:59:08.158Z,26.08
2022-09-07T20:00:47.914Z,26.08
2022-09-07T20:02:27.723Z,26.07
2022-09-07T20:04:07.438Z,26.07
2022-09-07T20:05:47.228Z,26.07
2022-09-07T20:07:26.986Z,26.07
2022-09-07T20:09:06.764Z,26.07
2022-09-07T20:10:46.520Z,26.07
2022-09-07T20:12:26.277Z,26.07
2022-09-07T20:14:06.070Z,26.07
2022-09-07T20:15:45.859Z,26.06
2022-09-07T20:17:25.591Z,26.07
2022-09-07T20:19:05.358Z,26.06
2022-09-07T20:20:45.129Z,26.07
2022-09-07T20:22:24.917Z,26.06
2022-09-07T20:24:04.654Z,26.06
2022-09-07T20:25:44.435Z,26.06
2022-09-07T20:27:24.273Z,26.06
2022-09-07T20:29:03.957Z,26.06
2022-09-07T20:30:43.733Z,26.06
2022-09-07T20:32:23.495Z,26.05
2022-09-07T20:34:03.253Z,26.06
2022-09-07T20:35:43.122Z,26.06
2022-09-07T20:37:22.806Z,26.05
2022-09-07T20:39:02.563Z,26.05
2022-09-07T20:40:42.329Z,26.04
2022-09-07T20:42:22.105Z,26.05
2022-09-07T20:44:01.921Z,26.05
2022-09-07T20:45:41.702Z,26.05
2022-09-07T20:47:21.400Z,26.04
2022-09-07T20:49:01.199Z,26.05
2022-09-07T20:50:40.991Z,26.04
2022-09-07T20:52:20.711Z,26.04
2022-09-07T20:54:00.474Z,26.04
2022-09-07T20:55:40.236Z,26.04
2022-09-07T20:57:20.027Z,26.03
2022-09-07T20:58:59.815Z,26.03
2022-09-07T21:00:39.562Z,26.04
2022-09-07T21:02:19.327Z,26.04
2022-09-07T21:03:59.082Z,26.03
2022-09-07T21:05:38.867Z,25.98
2022-09-07T21:07:18.616Z,26.03
2022-09-07T21:08:58.382Z,26.03
2022-09-07T21:10:38.146Z,26.03
2022-09-07T21:12:17.933Z,26.03
2022-09-07T21:13:57.706Z,26.03
2022-09-07T21:15:37.457Z,26.02
2022-09-07T21:17:17.297Z,26.03
2022-09-07T21:18:56.991Z,26.03
2022-09-07T21:20:36.808Z,26.02
2022-09-07T21:22:16.538Z,26.02
2022-09-07T21:23:56.317Z,26.02
2022-09-07T21:25:36.063Z,26.02
2022-09-07T21:27:15.867Z,26.02
2022-09-07T21:28:55.587Z,26.02
2022-09-07T21:30:35.375Z,25.92
2022-09-07T21:32:15.159Z,26.02
2022-09-07T21:33:54.904Z,26.01
2022-09-07T21:35:34.666Z,26.02
2022-09-07T21:37:14.443Z,26.01
2022-09-07T21:38:54.206Z,26.01
2022-09-07T21:40:33.957Z,26.02
2022-09-07T21:42:13.757Z,26.01
2022-09-07T21:43:53.516Z,26.01
2022-09-07T21:45:33.286Z,26.02
2022-09-07T21:47:13.057Z,26.01
2022-09-07T21:48:52.802Z,26.01
2022-09-07T21:50:32.592Z,26
2022-09-07T21:52:12.358Z,26.01
2022-09-07T21:53:52.105Z,26.01
2022-09-07T21:55:31.880Z,25.91
2022-09-07T21:57:11.635Z,26.01
2022-09-07T21:58:51.416Z,25.99
2022-09-07T22:00:31.166Z,26
2022-09-07T22:02:10.971Z,26
2022-09-07T22:03:50.803Z,26
2022-09-07T22:05:30.476Z,26
2022-09-07T22:07:10.256Z,26
2022-09-07T22:08:50.106Z,26
2022-09-07T22:10:29.785Z,25.99
2022-09-07T22:12:09.568Z,25.99
2022-09-07T22:13:49.322Z,25.99
2022-09-07T22:15:29.078Z,25.99
2022-09-07T22:17:08.864Z,25.98
2022-09-07T22:18:48.623Z,25.99
2022-09-07T22:20:28.376Z,25.89
2022-09-07T22:22:08.165Z,25.99
2022-09-07T22:23:47.931Z,25.99
2022-09-07T22:25:27.684Z,25.99
2022-09-07T22:27:07.528Z,25.98
2022-09-07T22:28:47.248Z,25.99
2022-09-07T22:32:06.764Z,25.98
2022-09-07T22:33:46.542Z,25.98
2022-09-07T22:35:26.300Z,25.98
2022-09-07T22:37:06.118Z,25.98
2022-09-07T22:38:45.912Z,25.98